CYVM/YVM METAR and TAF weather

Enter ICAO airport designator
Station Type Date Time Source
CYVM METAR 2021/09/20 05:00 UTC NOAA

CYVM 200500Z AUTO 12003KT 9SM OVC076 M01/M04 A2981 RMK SLP096


Station Type Date Time Source
CYVM Decoded METAR 2021/09/20 05:00 UTC NOAA

Broughton Island Airport, Canada (CYVM) 67-33N 064-02W
Sep 20, 2021 - 01:00 AM EDT / 2021.09.20 0500 UTC
Wind: from the ESE (120 degrees) at 3 MPH (3 KT):0
Visibility: 9 mile(s):0
Sky conditions: overcast
Temperature: 30 F (-1 C)
Dew Point: 24 F (-4 C)
Relative Humidity: 80%
Pressure (altimeter): 29.81 in. Hg (1009 hPa)
ob: CYVM 200500Z AUTO 12003KT 9SM OVC076 M01/M04 A2981 RMK SLP096
cycle: 5

Station Type Date Time Source
CYVM TAF 2021/09/20 01:39 UTC NOAA

TAF TAF CYVM 200038Z 2001/2013 20007KT P6SM SCT020 BKN060
TEMPO 2001/2013 BKN020 OVC060
RMK FCST BASED ON AUTO OBS. NXT FCST BY 200700Z

Example: see airport list